sensor_id;sensor_type;location;lat;lon;timestamp;temperature;humidity
6307;DHT22;3186;54.062;9.962;2024-02-28T00:02:09;5.40;99.90
6307;DHT22;3186;54.062;9.962;2024-02-28T00:04:35;5.40;99.90
6307;DHT22;3186;54.062;9.962;2024-02-28T00:07:02;5.40;99.90
6307;DHT22;3186;54.062;9.962;2024-02-28T00:09:27;5.40;99.90
6307;DHT22;3186;54.062;9.962;2024-02-28T00:11:53;5.40;99.90
6307;DHT22;3186;54.062;9.962;2024-02-28T00:14:19;5.30;99.90
6307;DHT22;3186;54.062;9.962;2024-02-28T00:16:46;5.30;99.90
6307;DHT22;3186;54.062;9.962;2024-02-28T00:19:12;5.30;99.90
6307;DHT22;3186;54.062;9.962;2024-02-28T00:21:38;5.30;99.90
6307;DHT22;3186;54.062;9.962;2024-02-28T00:24:05;5.30;99.90
6307;DHT22;3186;54.062;9.962;2024-02-28T00:26:31;5.30;99.90
6307;DHT22;3186;54.062;9.962;2024-02-28T00:28:57;5.30;99.90
6307;DHT22;3186;54.062;9.962;2024-02-28T00:31:23;5.30;99.90
6307;DHT22;3186;54.062;9.962;2024-02-28T00:33:48;5.30;99.90
6307;DHT22;3186;54.062;9.962;2024-02-28T00:36:14;5.30;99.90
6307;DHT22;3186;54.062;9.962;2024-02-28T00:38:43;5.20;99.90
6307;DHT22;3186;54.062;9.962;2024-02-28T00:41:09;5.20;99.90
6307;DHT22;3186;54.062;9.962;2024-02-28T00:43:34;5.20;99.90
6307;DHT22;3186;54.062;9.962;2024-02-28T00:46:00;5.10;99.90
6307;DHT22;3186;54.062;9.962;2024-02-28T00:48:25;5.20;99.90
6307;DHT22;3186;54.062;9.962;2024-02-28T00:50:52;5.20;99.90
6307;DHT22;3186;54.062;9.962;2024-02-28T00:53:18;5.30;99.90
6307;DHT22;3186;54.062;9.962;2024-02-28T00:55:44;5.20;99.90
6307;DHT22;3186;54.062;9.962;2024-02-28T00:58:10;5.20;99.90
6307;DHT22;3186;54.062;9.962;2024-02-28T01:00:36;5.10;99.90
6307;DHT22;3186;54.062;9.962;2024-02-28T01:03:02;5.10;99.90
6307;DHT22;3186;54.062;9.962;2024-02-28T01:05:31;5.10;99.90
6307;DHT22;3186;54.062;9.962;2024-02-28T01:07:56;5.10;99.90
6307;DHT22;3186;54.062;9.962;2024-02-28T01:10:22;5.00;99.90
6307;DHT22;3186;54.062;9.962;2024-02-28T01:12:48;4.90;99.90
6307;DHT22;3186;54.062;9.962;2024-02-28T01:15:14;4.80;99.90
6307;DHT22;3186;54.062;9.962;2024-02-28T01:17:39;4.90;99.90
6307;DHT22;3186;54.062;9.962;2024-02-28T01:20:06;4.90;99.90
6307;DHT22;3186;54.062;9.962;2024-02-28T01:22:34;4.90;99.90
6307;DHT22;3186;54.062;9.962;2024-02-28T01:24:59;4.80;99.90
6307;DHT22;3186;54.062;9.962;2024-02-28T01:27:25;4.80;99.90
6307;DHT22;3186;54.062;9.962;2024-02-28T01:29:51;4.70;99.90
6307;DHT22;3186;54.062;9.962;2024-02-28T01:32:19;4.80;99.90
6307;DHT22;3186;54.062;9.962;2024-02-28T01:34:44;4.80;99.90
6307;DHT22;3186;54.062;9.962;2024-02-28T01:37:10;4.80;99.90
6307;DHT22;3186;54.062;9.962;2024-02-28T01:39:36;4.90;99.90
6307;DHT22;3186;54.062;9.962;2024-02-28T01:42:01;4.90;99.90
6307;DHT22;3186;54.062;9.962;2024-02-28T01:44:27;4.90;99.90
6307;DHT22;3186;54.062;9.962;2024-02-28T01:46:53;5.00;99.90
6307;DHT22;3186;54.062;9.962;2024-02-28T01:49:22;5.00;99.90
6307;DHT22;3186;54.062;9.962;2024-02-28T01:51:49;4.80;99.90
6307;DHT22;3186;54.062;9.962;2024-02-28T01:54:16;4.90;99.90
6307;DHT22;3186;54.062;9.962;2024-02-28T01:56:43;4.80;99.90
6307;DHT22;3186;54.062;9.962;2024-02-28T01:59:10;4.90;99.90
6307;DHT22;3186;54.062;9.962;2024-02-28T02:01:37;4.80;99.90
6307;DHT22;3186;54.062;9.962;2024-02-28T02:04:03;4.80;99.90
6307;DHT22;3186;54.062;9.962;2024-02-28T02:06:29;4.90;99.90
6307;DHT22;3186;54.062;9.962;2024-02-28T02:08:55;4.80;99.90
6307;DHT22;3186;54.062;9.962;2024-02-28T02:11:21;4.80;99.90
6307;DHT22;3186;54.062;9.962;2024-02-28T02:13:51;4.80;99.90
6307;DHT22;3186;54.062;9.962;2024-02-28T02:16:18;4.80;99.90
6307;DHT22;3186;54.062;9.962;2024-02-28T02:18:44;4.90;99.90
6307;DHT22;3186;54.062;9.962;2024-02-28T02:21:11;4.90;99.90
6307;DHT22;3186;54.062;9.962;2024-02-28T02:23:38;4.80;99.90
6307;DHT22;3186;54.062;9.962;2024-02-28T02:26:07;4.70;99.90
6307;DHT22;3186;54.062;9.962;2024-02-28T02:28:33;4.70;99.90
6307;DHT22;3186;54.062;9.962;2024-02-28T02:30:59;4.70;99.90
6307;DHT22;3186;54.062;9.962;2024-02-28T02:33:24;4.80;99.90
6307;DHT22;3186;54.062;9.962;2024-02-28T02:35:51;4.80;99.90
6307;DHT22;3186;54.062;9.962;2024-02-28T02:38:17;4.80;99.90
6307;DHT22;3186;54.062;9.962;2024-02-28T02:40:43;4.70;99.90
6307;DHT22;3186;54.062;9.962;2024-02-28T02:43:08;4.70;99.90
6307;DHT22;3186;54.062;9.962;2024-02-28T02:45:34;4.80;99.90
6307;DHT22;3186;54.062;9.962;2024-02-28T02:48:00;4.80;99.90
6307;DHT22;3186;54.062;9.962;2024-02-28T02:50:26;4.80;99.90
6307;DHT22;3186;54.062;9.962;2024-02-28T02:52:51;4.80;99.90
6307;DHT22;3186;54.062;9.962;2024-02-28T02:55:17;4.80;99.90
6307;DHT22;3186;54.062;9.962;2024-02-28T02:57:43;4.80;99.90
6307;DHT22;3186;54.062;9.962;2024-02-28T03:00:10;4.80;99.90
6307;DHT22;3186;54.062;9.962;2024-02-28T03:02:35;4.80;99.90
6307;DHT22;3186;54.062;9.962;2024-02-28T03:05:04;4.70;99.90
6307;DHT22;3186;54.062;9.962;2024-02-28T03:07:30;4.60;99.90
6307;DHT22;3186;54.062;9.962;2024-02-28T03:09:55;4.60;99.90
6307;DHT22;3186;54.062;9.962;2024-02-28T03:12:21;4.60;99.90
6307;DHT22;3186;54.062;9.962;2024-02-28T03:14:48;4.50;99.90
6307;DHT22;3186;54.062;9.962;2024-02-28T03:17:14;4.50;99.90
6307;DHT22;3186;54.062;9.962;2024-02-28T03:19:44;4.50;99.90
6307;DHT22;3186;54.062;9.962;2024-02-28T03:22:09;4.50;99.90
6307;DHT22;3186;54.062;9.962;2024-02-28T03:24:35;4.50;99.90
6307;DHT22;3186;54.062;9.962;2024-02-28T03:27:01;4.60;99.90
6307;DHT22;3186;54.062;9.962;2024-02-28T03:29:27;3.00;99.90
6307;DHT22;3186;54.062;9.962;2024-02-28T03:36:02;4.50;99.90
6307;DHT22;3186;54.062;9.962;2024-02-28T03:38:28;4.50;99.90
6307;DHT22;3186;54.062;9.962;2024-02-28T03:40:53;4.50;99.90
6307;DHT22;3186;54.062;9.962;2024-02-28T03:43:19;4.50;99.90
6307;DHT22;3186;54.062;9.962;2024-02-28T03:45:44;4.60;99.90
6307;DHT22;3186;54.062;9.962;2024-02-28T03:48:10;4.60;99.90
6307;DHT22;3186;54.062;9.962;2024-02-28T03:50:36;4.50;99.90
6307;DHT22;3186;54.062;9.962;2024-02-28T03:53:01;4.60;99.90
6307;DHT22;3186;54.062;9.962;2024-02-28T03:55:27;4.40;99.90
6307;DHT22;3186;54.062;9.962;2024-02-28T03:57:53;4.50;99.90
6307;DHT22;3186;54.062;9.962;2024-02-28T04:00:18;4.60;99.90
6307;DHT22;3186;54.062;9.962;2024-02-28T04:02:44;4.60;99.90
6307;DHT22;3186;54.062;9.962;2024-02-28T04:05:10;4.50;99.90
6307;DHT22;3186;54.062;9.962;2024-02-28T04:07:35;4.50;99.90
6307;DHT22;3186;54.062;9.962;2024-02-28T04:10:01;4.60;99.90
6307;DHT22;3186;54.062;9.962;2024-02-28T04:12:27;4.50;99.90
6307;DHT22;3186;54.062;9.962;2024-02-28T04:14:52;4.60;99.90
6307;DHT22;3186;54.062;9.962;2024-02-28T04:17:18;4.50;99.90
6307;DHT22;3186;54.062;9.962;2024-02-28T04:19:43;4.50;99.90
6307;DHT22;3186;54.062;9.962;2024-02-28T04:22:09;4.40;99.90
6307;DHT22;3186;54.062;9.962;2024-02-28T04:24:35;4.40;99.90
6307;DHT22;3186;54.062;9.962;2024-02-28T04:27:00;4.50;99.90
6307;DHT22;3186;54.062;9.962;2024-02-28T04:29:28;4.50;99.90
6307;DHT22;3186;54.062;9.962;2024-02-28T04:31:54;4.40;99.90
6307;DHT22;3186;54.062;9.962;2024-02-28T04:34:19;4.50;99.90
6307;DHT22;3186;54.062;9.962;2024-02-28T04:36:45;4.50;99.90
6307;DHT22;3186;54.062;9.962;2024-02-28T04:39:10;4.50;99.90
6307;DHT22;3186;54.062;9.962;2024-02-28T04:41:36;4.50;99.90
6307;DHT22;3186;54.062;9.962;2024-02-28T04:44:01;4.50;99.90
6307;DHT22;3186;54.062;9.962;2024-02-28T04:46:28;4.60;99.90
6307;DHT22;3186;54.062;9.962;2024-02-28T04:48:53;4.50;99.90
6307;DHT22;3186;54.062;9.962;2024-02-28T04:51:19;4.50;99.90
6307;DHT22;3186;54.062;9.962;2024-02-28T04:53:45;4.50;99.90
6307;DHT22;3186;54.062;9.962;2024-02-28T04:56:10;4.50;99.90
6307;DHT22;3186;54.062;9.962;2024-02-28T04:58:36;4.50;99.90
6307;DHT22;3186;54.062;9.962;2024-02-28T05:01:02;4.50;99.90
6307;DHT22;3186;54.062;9.962;2024-02-28T05:03:28;4.50;99.90
6307;DHT22;3186;54.062;9.962;2024-02-28T05:05:54;4.50;99.90
6307;DHT22;3186;54.062;9.962;2024-02-28T05:08:20;4.40;99.90
6307;DHT22;3186;54.062;9.962;2024-02-28T05:10:46;4.50;99.90
6307;DHT22;3186;54.062;9.962;2024-02-28T05:13:12;4.40;99.90
6307;DHT22;3186;54.062;9.962;2024-02-28T05:15:38;4.40;99.90
6307;DHT22;3186;54.062;9.962;2024-02-28T05:18:04;4.40;99.90
6307;DHT22;3186;54.062;9.962;2024-02-28T05:20:29;4.30;99.90
6307;DHT22;3186;54.062;9.962;2024-02-28T05:22:55;4.40;99.90
6307;DHT22;3186;54.062;9.962;2024-02-28T05:25:21;4.40;99.90
6307;DHT22;3186;54.062;9.962;2024-02-28T05:27:46;4.40;99.90
6307;DHT22;3186;54.062;9.962;2024-02-28T05:30:12;4.40;99.90
6307;DHT22;3186;54.062;9.962;2024-02-28T05:32:38;4.40;99.90
6307;DHT22;3186;54.062;9.962;2024-02-28T05:35:04;4.30;99.90
6307;DHT22;3186;54.062;9.962;2024-02-28T05:37:29;4.20;99.90
6307;DHT22;3186;54.062;9.962;2024-02-28T05:39:55;4.30;99.90
6307;DHT22;3186;54.062;9.962;2024-02-28T05:42:23;4.30;99.90
6307;DHT22;3186;54.062;9.962;2024-02-28T05:44:49;4.20;99.90
6307;DHT22;3186;54.062;9.962;2024-02-28T05:47:15;4.30;99.90
6307;DHT22;3186;54.062;9.962;2024-02-28T05:49:41;4.30;99.90
6307;DHT22;3186;54.062;9.962;2024-02-28T05:52:07;4.30;99.90
6307;DHT22;3186;54.062;9.962;2024-02-28T05:54:32;4.40;99.90
6307;DHT22;3186;54.062;9.962;2024-02-28T05:57:00;4.30;99.90
6307;DHT22;3186;54.062;9.962;2024-02-28T05:59:25;4.30;99.90
6307;DHT22;3186;54.062;9.962;2024-02-28T06:01:51;4.30;99.90
6307;DHT22;3186;54.062;9.962;2024-02-28T06:04:17;4.30;99.90
6307;DHT22;3186;54.062;9.962;2024-02-28T06:06:43;4.30;99.90
6307;DHT22;3186;54.062;9.962;2024-02-28T06:09:08;4.30;99.90
6307;DHT22;3186;54.062;9.962;2024-02-28T06:11:34;4.20;99.90
6307;DHT22;3186;54.062;9.962;2024-02-28T06:14:01;4.30;99.90
6307;DHT22;3186;54.062;9.962;2024-02-28T06:16:27;4.30;99.90
6307;DHT22;3186;54.062;9.962;2024-02-28T06:18:54;4.20;99.90
6307;DHT22;3186;54.062;9.962;2024-02-28T06:21:22;4.20;99.90
6307;DHT22;3186;54.062;9.962;2024-02-28T06:23:48;4.20;99.90
6307;DHT22;3186;54.062;9.962;2024-02-28T06:26:14;4.20;99.90
6307;DHT22;3186;54.062;9.962;2024-02-28T06:28:48;4.20;99.90
6307;DHT22;3186;54.062;9.962;2024-02-28T06:31:17;4.20;99.90
6307;DHT22;3186;54.062;9.962;2024-02-28T06:33:43;4.30;99.90
6307;DHT22;3186;54.062;9.962;2024-02-28T06:36:09;4.20;99.90
6307;DHT22;3186;54.062;9.962;2024-02-28T06:38:35;4.30;99.90
6307;DHT22;3186;54.062;9.962;2024-02-28T06:41:03;4.30;99.90
6307;DHT22;3186;54.062;9.962;2024-02-28T06:43:30;4.30;99.90
6307;DHT22;3186;54.062;9.962;2024-02-28T06:45:55;4.20;99.90
6307;DHT22;3186;54.062;9.962;2024-02-28T06:48:21;4.20;99.90
6307;DHT22;3186;54.062;9.962;2024-02-28T06:50:47;4.20;99.90
6307;DHT22;3186;54.062;9.962;2024-02-28T06:53:12;4.20;99.90
6307;DHT22;3186;54.062;9.962;2024-02-28T06:55:38;4.20;99.90
6307;DHT22;3186;54.062;9.962;2024-02-28T06:58:03;4.20;99.90
6307;DHT22;3186;54.062;9.962;2024-02-28T07:00:29;4.20;99.90
6307;DHT22;3186;54.062;9.962;2024-02-28T07:02:55;4.10;99.90
6307;DHT22;3186;54.062;9.962;2024-02-28T07:05:21;4.20;99.90
6307;DHT22;3186;54.062;9.962;2024-02-28T07:07:47;4.20;99.90
6307;DHT22;3186;54.062;9.962;2024-02-28T07:10:13;4.20;99.90
6307;DHT22;3186;54.062;9.962;2024-02-28T07:12:39;4.20;99.90
6307;DHT22;3186;54.062;9.962;2024-02-28T07:15:05;4.00;99.90
6307;DHT22;3186;54.062;9.962;2024-02-28T07:17:31;4.00;99.90
6307;DHT22;3186;54.062;9.962;2024-02-28T07:19:57;4.10;99.90
6307;DHT22;3186;54.062;9.962;2024-02-28T07:22:22;4.10;99.90
6307;DHT22;3186;54.062;9.962;2024-02-28T07:24:48;4.10;99.90
6307;DHT22;3186;54.062;9.962;2024-02-28T07:27:14;4.00;99.90
6307;DHT22;3186;54.062;9.962;2024-02-28T07:29:41;4.20;99.90
6307;DHT22;3186;54.062;9.962;2024-02-28T07:32:07;4.10;99.90
6307;DHT22;3186;54.062;9.962;2024-02-28T07:34:32;4.10;99.90
6307;DHT22;3186;54.062;9.962;2024-02-28T07:36:59;4.00;99.90
6307;DHT22;3186;54.062;9.962;2024-02-28T07:39:26;4.10;99.90
6307;DHT22;3186;54.062;9.962;2024-02-28T07:41:52;4.10;99.90
6307;DHT22;3186;54.062;9.962;2024-02-28T07:44:18;4.10;99.90
6307;DHT22;3186;54.062;9.962;2024-02-28T07:46:43;4.10;99.90
6307;DHT22;3186;54.062;9.962;2024-02-28T07:49:09;4.20;99.90
6307;DHT22;3186;54.062;9.962;2024-02-28T07:51:36;4.20;99.90
6307;DHT22;3186;54.062;9.962;2024-02-28T07:54:02;4.10;99.90
6307;DHT22;3186;54.062;9.962;2024-02-28T07:56:29;4.20;99.90
6307;DHT22;3186;54.062;9.962;2024-02-28T07:58:55;4.20;99.90
6307;DHT22;3186;54.062;9.962;2024-02-28T08:01:20;4.40;99.90
6307;DHT22;3186;54.062;9.962;2024-02-28T08:03:47;4.40;99.90
6307;DHT22;3186;54.062;9.962;2024-02-28T08:06:13;4.30;99.90
6307;DHT22;3186;54.062;9.962;2024-02-28T08:08:39;4.40;99.90
6307;DHT22;3186;54.062;9.962;2024-02-28T08:11:04;4.40;99.90
6307;DHT22;3186;54.062;9.962;2024-02-28T08:13:31;4.50;99.90
6307;DHT22;3186;54.062;9.962;2024-02-28T08:15:58;4.40;99.90
6307;DHT22;3186;54.062;9.962;2024-02-28T08:18:24;4.50;99.90
6307;DHT22;3186;54.062;9.962;2024-02-28T08:20:50;4.50;99.90
6307;DHT22;3186;54.062;9.962;2024-02-28T08:23:18;4.50;99.90
6307;DHT22;3186;54.062;9.962;2024-02-28T08:25:43;4.60;99.90
6307;DHT22;3186;54.062;9.962;2024-02-28T08:28:09;4.60;99.90
6307;DHT22;3186;54.062;9.962;2024-02-28T08:30:35;4.60;99.90
6307;DHT22;3186;54.062;9.962;2024-02-28T08:33:00;4.70;99.90
6307;DHT22;3186;54.062;9.962;2024-02-28T08:35:26;4.70;99.90
6307;DHT22;3186;54.062;9.962;2024-02-28T08:37:52;4.70;99.90
6307;DHT22;3186;54.062;9.962;2024-02-28T08:40:18;4.80;99.90
6307;DHT22;3186;54.062;9.962;2024-02-28T08:42:43;4.70;99.90
6307;DHT22;3186;54.062;9.962;2024-02-28T08:45:10;4.90;99.90
6307;DHT22;3186;54.062;9.962;2024-02-28T08:47:35;4.90;99.90
6307;DHT22;3186;54.062;9.962;2024-02-28T08:50:01;4.90;99.90
6307;DHT22;3186;54.062;9.962;2024-02-28T08:52:26;5.00;99.90
6307;DHT22;3186;54.062;9.962;2024-02-28T08:54:52;5.00;99.90
6307;DHT22;3186;54.062;9.962;2024-02-28T08:57:19;5.10;99.90
6307;DHT22;3186;54.062;9.962;2024-02-28T08:59:47;5.10;99.90
6307;DHT22;3186;54.062;9.962;2024-02-28T09:02:13;5.10;99.90
6307;DHT22;3186;54.062;9.962;2024-02-28T09:04:38;5.10;99.90
6307;DHT22;3186;54.062;9.962;2024-02-28T09:07:04;5.20;99.90
6307;DHT22;3186;54.062;9.962;2024-02-28T09:09:30;5.20;99.90
6307;DHT22;3186;54.062;9.962;2024-02-28T09:11:59;5.20;99.90
6307;DHT22;3186;54.062;9.962;2024-02-28T09:14:25;5.30;99.90
6307;DHT22;3186;54.062;9.962;2024-02-28T09:16:51;5.30;99.90
6307;DHT22;3186;54.062;9.962;2024-02-28T09:19:16;5.40;99.90
6307;DHT22;3186;54.062;9.962;2024-02-28T09:21:42;5.40;99.90
6307;DHT22;3186;54.062;9.962;2024-02-28T09:24:08;5.50;99.90
6307;DHT22;3186;54.062;9.962;2024-02-28T09:26:34;5.40;99.90
6307;DHT22;3186;54.062;9.962;2024-02-28T09:29:03;5.50;99.90
6307;DHT22;3186;54.062;9.962;2024-02-28T09:31:29;5.50;99.90
6307;DHT22;3186;54.062;9.962;2024-02-28T09:33:55;5.50;99.90
6307;DHT22;3186;54.062;9.962;2024-02-28T09:36:23;5.50;99.90
6307;DHT22;3186;54.062;9.962;2024-02-28T09:38:49;5.60;99.90
6307;DHT22;3186;54.062;9.962;2024-02-28T09:41:15;5.60;99.90
6307;DHT22;3186;54.062;9.962;2024-02-28T09:43:41;5.70;99.90
6307;DHT22;3186;54.062;9.962;2024-02-28T09:46:08;5.80;99.90
6307;DHT22;3186;54.062;9.962;2024-02-28T09:48:38;5.70;99.90
6307;DHT22;3186;54.062;9.962;2024-02-28T09:51:05;5.90;99.90
6307;DHT22;3186;54.062;9.962;2024-02-28T09:53:31;5.80;99.90
6307;DHT22;3186;54.062;9.962;2024-02-28T09:55:57;6.00;99.90
6307;DHT22;3186;54.062;9.962;2024-02-28T09:58:25;6.00;99.90
6307;DHT22;3186;54.062;9.962;2024-02-28T10:00:52;6.00;99.90
6307;DHT22;3186;54.062;9.962;2024-02-28T10:03:19;6.00;99.90
6307;DHT22;3186;54.062;9.962;2024-02-28T10:05:46;6.00;99.90
6307;DHT22;3186;54.062;9.962;2024-02-28T10:08:12;6.00;99.90
6307;DHT22;3186;54.062;9.962;2024-02-28T10:10:45;6.00;99.90
6307;DHT22;3186;54.062;9.962;2024-02-28T10:13:11;6.00;99.90
6307;DHT22;3186;54.062;9.962;2024-02-28T10:15:37;6.00;99.90
6307;DHT22;3186;54.062;9.962;2024-02-28T10:18:02;6.00;99.90
6307;DHT22;3186;54.062;9.962;2024-02-28T10:20:30;6.00;99.90
6307;DHT22;3186;54.062;9.962;2024-02-28T10:22:56;6.00;99.90
6307;DHT22;3186;54.062;9.962;2024-02-28T10:25:22;6.10;99.90
6307;DHT22;3186;54.062;9.962;2024-02-28T10:27:47;6.10;99.90
6307;DHT22;3186;54.062;9.962;2024-02-28T10:30:13;6.10;99.90
6307;DHT22;3186;54.062;9.962;2024-02-28T10:32:48;6.10;99.90
6307;DHT22;3186;54.062;9.962;2024-02-28T10:35:17;6.00;99.90
6307;DHT22;3186;54.062;9.962;2024-02-28T10:37:45;6.10;99.90
6307;DHT22;3186;54.062;9.962;2024-02-28T10:40:13;6.10;99.90
6307;DHT22;3186;54.062;9.962;2024-02-28T10:42:42;6.20;99.90
6307;DHT22;3186;54.062;9.962;2024-02-28T10:45:11;6.10;99.90
6307;DHT22;3186;54.062;9.962;2024-02-28T10:47:41;6.10;99.90
6307;DHT22;3186;54.062;9.962;2024-02-28T10:50:07;6.20;99.90
6307;DHT22;3186;54.062;9.962;2024-02-28T10:52:34;6.20;99.90
6307;DHT22;3186;54.062;9.962;2024-02-28T10:55:02;6.30;99.90
6307;DHT22;3186;54.062;9.962;2024-02-28T10:57:28;6.30;99.90
6307;DHT22;3186;54.062;9.962;2024-02-28T10:59:55;6.30;99.90
6307;DHT22;3186;54.062;9.962;2024-02-28T11:02:22;6.30;99.90
6307;DHT22;3186;54.062;9.962;2024-02-28T11:04:52;6.30;99.90
6307;DHT22;3186;54.062;9.962;2024-02-28T11:07:21;6.30;99.90
6307;DHT22;3186;54.062;9.962;2024-02-28T11:09:47;6.30;99.90
6307;DHT22;3186;54.062;9.962;2024-02-28T11:12:29;6.30;99.90
6307;DHT22;3186;54.062;9.962;2024-02-28T11:14:58;6.40;99.90
6307;DHT22;3186;54.062;9.962;2024-02-28T11:17:28;6.40;99.90
6307;DHT22;3186;54.062;9.962;2024-02-28T11:19:54;6.40;99.90
6307;DHT22;3186;54.062;9.962;2024-02-28T11:22:20;6.40;99.90
6307;DHT22;3186;54.062;9.962;2024-02-28T11:24:47;6.40;99.90
6307;DHT22;3186;54.062;9.962;2024-02-28T11:27:13;6.50;99.90
6307;DHT22;3186;54.062;9.962;2024-02-28T11:29:39;6.50;99.90
6307;DHT22;3186;54.062;9.962;2024-02-28T11:32:06;6.50;99.90
6307;DHT22;3186;54.062;9.962;2024-02-28T11:34:33;6.40;99.90
6307;DHT22;3186;54.062;9.962;2024-02-28T11:36:59;6.50;99.90
6307;DHT22;3186;54.062;9.962;2024-02-28T11:39:24;6.40;99.90
6307;DHT22;3186;54.062;9.962;2024-02-28T11:41:51;6.50;99.90
6307;DHT22;3186;54.062;9.962;2024-02-28T11:44:18;6.50;99.90
6307;DHT22;3186;54.062;9.962;2024-02-28T11:46:46;6.40;99.90
6307;DHT22;3186;54.062;9.962;2024-02-28T11:49:12;6.40;99.90
6307;DHT22;3186;54.062;9.962;2024-02-28T11:51:43;6.50;99.90
6307;DHT22;3186;54.062;9.962;2024-02-28T11:54:09;6.40;99.90
6307;DHT22;3186;54.062;9.962;2024-02-28T11:56:39;6.50;99.90
6307;DHT22;3186;54.062;9.962;2024-02-28T11:59:05;6.60;99.90
6307;DHT22;3186;54.062;9.962;2024-02-28T12:01:37;6.60;99.90
6307;DHT22;3186;54.062;9.962;2024-02-28T12:04:04;6.60;99.90
6307;DHT22;3186;54.062;9.962;2024-02-28T12:06:31;6.60;99.90
6307;DHT22;3186;54.062;9.962;2024-02-28T12:08:57;6.70;99.90
6307;DHT22;3186;54.062;9.962;2024-02-28T12:11:24;6.70;99.90
6307;DHT22;3186;54.062;9.962;2024-02-28T12:13:54;6.70;99.90
6307;DHT22;3186;54.062;9.962;2024-02-28T12:16:25;6.70;99.90
6307;DHT22;3186;54.062;9.962;2024-02-28T12:18:53;6.60;99.90
6307;DHT22;3186;54.062;9.962;2024-02-28T12:21:20;6.70;99.90
6307;DHT22;3186;54.062;9.962;2024-02-28T12:23:49;6.60;99.90
6307;DHT22;3186;54.062;9.962;2024-02-28T12:26:17;6.70;99.90
6307;DHT22;3186;54.062;9.962;2024-02-28T12:28:44;6.60;99.90
6307;DHT22;3186;54.062;9.962;2024-02-28T12:31:09;6.70;99.90
6307;DHT22;3186;54.062;9.962;2024-02-28T12:33:37;6.70;99.90
6307;DHT22;3186;54.062;9.962;2024-02-28T12:36:03;6.70;99.90
6307;DHT22;3186;54.062;9.962;2024-02-28T12:38:30;6.80;99.90
6307;DHT22;3186;54.062;9.962;2024-02-28T12:40:56;6.70;99.90
6307;DHT22;3186;54.062;9.962;2024-02-28T12:43:22;6.70;99.90
6307;DHT22;3186;54.062;9.962;2024-02-28T12:45:48;6.60;99.90
6307;DHT22;3186;54.062;9.962;2024-02-28T12:48:13;6.70;99.90
6307;DHT22;3186;54.062;9.962;2024-02-28T12:50:39;6.60;99.90
6307;DHT22;3186;54.062;9.962;2024-02-28T12:53:05;6.70;99.90
6307;DHT22;3186;54.062;9.962;2024-02-28T12:55:31;6.70;99.90
6307;DHT22;3186;54.062;9.962;2024-02-28T12:57:57;6.70;99.90
6307;DHT22;3186;54.062;9.962;2024-02-28T13:00:25;6.80;99.90
6307;DHT22;3186;54.062;9.962;2024-02-28T13:02:50;6.80;99.90
6307;DHT22;3186;54.062;9.962;2024-02-28T13:05:16;6.90;99.90
6307;DHT22;3186;54.062;9.962;2024-02-28T13:07:42;8.20;99.90
6307;DHT22;3186;54.062;9.962;2024-02-28T13:10:08;7.00;99.90
6307;DHT22;3186;54.062;9.962;2024-02-28T13:12:40;7.00;99.90
6307;DHT22;3186;54.062;9.962;2024-02-28T13:15:06;7.10;99.90
6307;DHT22;3186;54.062;9.962;2024-02-28T13:17:33;7.10;99.90
6307;DHT22;3186;54.062;9.962;2024-02-28T13:19:59;7.20;99.90
6307;DHT22;3186;54.062;9.962;2024-02-28T13:22:24;7.20;99.90
6307;DHT22;3186;54.062;9.962;2024-02-28T13:24:50;7.20;99.90
6307;DHT22;3186;54.062;9.962;2024-02-28T13:27:16;7.20;99.90
6307;DHT22;3186;54.062;9.962;2024-02-28T13:29:41;7.20;99.90
6307;DHT22;3186;54.062;9.962;2024-02-28T13:32:07;7.30;99.90
6307;DHT22;3186;54.062;9.962;2024-02-28T13:34:33;7.30;99.90
6307;DHT22;3186;54.062;9.962;2024-02-28T13:36:58;7.20;99.90
6307;DHT22;3186;54.062;9.962;2024-02-28T13:39:24;7.40;99.90
6307;DHT22;3186;54.062;9.962;2024-02-28T13:41:50;7.40;99.90
6307;DHT22;3186;54.062;9.962;2024-02-28T13:44:19;7.40;99.90
6307;DHT22;3186;54.062;9.962;2024-02-28T13:46:45;7.50;99.90
6307;DHT22;3186;54.062;9.962;2024-02-28T13:49:13;7.40;99.90
6307;DHT22;3186;54.062;9.962;2024-02-28T13:51:39;7.50;99.90
6307;DHT22;3186;54.062;9.962;2024-02-28T13:54:04;7.60;99.90
6307;DHT22;3186;54.062;9.962;2024-02-28T13:56:31;7.70;99.90
6307;DHT22;3186;54.062;9.962;2024-02-28T13:58:57;7.60;99.90
6307;DHT22;3186;54.062;9.962;2024-02-28T14:01:23;7.60;99.90
6307;DHT22;3186;54.062;9.962;2024-02-28T14:03:48;7.60;99.90
6307;DHT22;3186;54.062;9.962;2024-02-28T14:06:14;7.60;99.90
6307;DHT22;3186;54.062;9.962;2024-02-28T14:08:40;7.60;99.90
6307;DHT22;3186;54.062;9.962;2024-02-28T14:11:05;7.60;99.90
6307;DHT22;3186;54.062;9.962;2024-02-28T14:13:31;7.60;99.90
6307;DHT22;3186;54.062;9.962;2024-02-28T14:15:57;7.60;99.90
6307;DHT22;3186;54.062;9.962;2024-02-28T14:18:22;7.60;99.90
6307;DHT22;3186;54.062;9.962;2024-02-28T14:20:48;7.80;99.90
6307;DHT22;3186;54.062;9.962;2024-02-28T14:23:14;7.80;99.90
6307;DHT22;3186;54.062;9.962;2024-02-28T14:25:39;7.80;99.90
6307;DHT22;3186;54.062;9.962;2024-02-28T14:28:07;7.80;99.90
6307;DHT22;3186;54.062;9.962;2024-02-28T14:30:32;7.70;99.90
6307;DHT22;3186;54.062;9.962;2024-02-28T14:32:59;7.80;99.90
6307;DHT22;3186;54.062;9.962;2024-02-28T14:35:25;7.80;99.90
6307;DHT22;3186;54.062;9.962;2024-02-28T14:37:50;7.80;99.90
6307;DHT22;3186;54.062;9.962;2024-02-28T14:40:18;7.70;99.90
6307;DHT22;3186;54.062;9.962;2024-02-28T14:42:44;7.70;99.90
6307;DHT22;3186;54.062;9.962;2024-02-28T14:45:13;7.60;99.90
6307;DHT22;3186;54.062;9.962;2024-02-28T14:47:42;7.60;99.90
6307;DHT22;3186;54.062;9.962;2024-02-28T14:50:09;7.70;99.90
6307;DHT22;3186;54.062;9.962;2024-02-28T14:52:38;7.80;99.90
6307;DHT22;3186;54.062;9.962;2024-02-28T14:55:08;7.80;99.90
6307;DHT22;3186;54.062;9.962;2024-02-28T14:57:38;7.90;99.90
6307;DHT22;3186;54.062;9.962;2024-02-28T15:00:06;7.80;99.90
6307;DHT22;3186;54.062;9.962;2024-02-28T15:02:42;7.80;99.90
6307;DHT22;3186;54.062;9.962;2024-02-28T15:05:08;7.80;99.90
6307;DHT22;3186;54.062;9.962;2024-02-28T15:07:35;7.80;99.90
6307;DHT22;3186;54.062;9.962;2024-02-28T15:10:04;7.80;99.90
6307;DHT22;3186;54.062;9.962;2024-02-28T15:12:31;7.80;99.90
6307;DHT22;3186;54.062;9.962;2024-02-28T15:15:04;7.70;99.90
6307;DHT22;3186;54.062;9.962;2024-02-28T15:17:31;7.90;99.90
6307;DHT22;3186;54.062;9.962;2024-02-28T15:19:57;7.80;99.90
6307;DHT22;3186;54.062;9.962;2024-02-28T15:22:23;7.70;99.90
6307;DHT22;3186;54.062;9.962;2024-02-28T15:24:49;7.70;99.90
6307;DHT22;3186;54.062;9.962;2024-02-28T15:27:14;7.70;99.90
6307;DHT22;3186;54.062;9.962;2024-02-28T15:29:40;7.70;99.90
6307;DHT22;3186;54.062;9.962;2024-02-28T15:32:06;7.60;99.90
6307;DHT22;3186;54.062;9.962;2024-02-28T15:34:31;7.70;99.90
6307;DHT22;3186;54.062;9.962;2024-02-28T15:36:57;7.70;99.90
6307;DHT22;3186;54.062;9.962;2024-02-28T15:39:23;7.60;99.90
6307;DHT22;3186;54.062;9.962;2024-02-28T15:41:49;7.50;99.90
6307;DHT22;3186;54.062;9.962;2024-02-28T15:44:17;7.60;99.90
6307;DHT22;3186;54.062;9.962;2024-02-28T15:46:42;7.70;99.90
6307;DHT22;3186;54.062;9.962;2024-02-28T15:49:08;7.70;99.90
6307;DHT22;3186;54.062;9.962;2024-02-28T15:51:34;7.70;99.90
6307;DHT22;3186;54.062;9.962;2024-02-28T15:54:01;7.60;99.90
6307;DHT22;3186;54.062;9.962;2024-02-28T15:56:26;7.70;99.90
6307;DHT22;3186;54.062;9.962;2024-02-28T15:58:52;7.50;99.90
6307;DHT22;3186;54.062;9.962;2024-02-28T16:01:18;7.50;99.90
6307;DHT22;3186;54.062;9.962;2024-02-28T16:03:44;7.50;99.90
6307;DHT22;3186;54.062;9.962;2024-02-28T16:06:09;7.60;99.90
6307;DHT22;3186;54.062;9.962;2024-02-28T16:08:40;7.60;99.90
6307;DHT22;3186;54.062;9.962;2024-02-28T16:11:09;7.70;99.90
6307;DHT22;3186;54.062;9.962;2024-02-28T16:13:35;7.70;99.90
6307;DHT22;3186;54.062;9.962;2024-02-28T16:16:01;7.70;99.90